Terminal Aerodrome Forecast
Issued by NWS

Home | Current Version | Previous Version | Text Only | Print | Product List | Glossary On
Versions: 1 2 3 4 5 6 7 8 9 10 11 12 13 14 15 16 17 18 19 20 21 22 23 24 25 26 27 28 29 30 31 32 33 34 35
000
FTUS41 KBOX 192322
TAFFMH
TAF
KFMH 192322Z 2000/2024 12005KT P6SM FEW250
     FM201200 10009KT P6SM BKN120
     FM201400 12013G23KT P6SM OVC020
     FM201500 12015G25KT 5SM -RA OVC020
     FM202000 12017G28KT 2SM -SHRA BR OVC008 WS020/14045KT
     FM202200 13018G29KT 3SM -SHRA BR OVC008 WS020/15050KT=

USA.gov is the U.S. government's official web portal to all federal, state and local government web resources and services.